This is the latest recevied weather packets stored in our database for station/object KJ6BBX. If no packets are shown the sender has not sent any weather packets the latest 10 day(s).
| Time | Temp. | Humidity | Pressure | Rain* | Wind** | Luminosity | Snow |
|---|---|---|---|---|---|---|---|
| 1777414814 | 23.33° C | 45% | 1008 hPa | 0 mm | - | 342 W/m² | - |
| 1777413914 | 23.89° C | 45% | 1008.3 hPa | 0 mm | - | 499 W/m² | - |
| 1777413014 | 23.89° C | 45% | 1008.2 hPa | 0 mm | - | 495 W/m² | - |
| 1777412114 | 23.33° C | 46% | 1008.5 hPa | 0 mm | - | 584 W/m² | - |
| 1777411214 | 23.89° C | 45% | 1008.3 hPa | 0 mm | - | 546 W/m² | - |
| 1777410314 | 25° C | 43% | 1008.4 hPa | 0 mm | - | 566 W/m² | - |
| 1777409414 | 24.44° C | 43% | 1008.3 hPa | 0 mm | - | 567 W/m² | - |
| 1777408514 | 25.56° C | 39% | 1008.3 hPa | 0 mm | - | 615 W/m² | - |
| 1777407615 | 23.89° C | 37% | 1008.1 hPa | 0 mm | - | 665 W/m² | - |
| 1777406715 | 25° C | 37% | 1008.2 hPa | 0 mm | - | 569 W/m² | - |
| 1777405814 | 24.44° C | 36% | 1008.4 hPa | 0 mm | - | 578 W/m² | - |
| 1777404914 | 23.89° C | 38% | 1008.5 hPa | 0 mm | - | 608 W/m² | - |
| 1777404014 | 23.89° C | 39% | 1008.7 hPa | 0 mm | - | 593 W/m² | - |
| 1777403114 | 23.89° C | 40% | 1008.8 hPa | 0 mm | - | 642 W/m² | - |
| 1777402215 | 21.67° C | 44% | 1009.1 hPa | 0 mm | - | 594 W/m² | - |
| 1777401314 | 22.78° C | 41% | 1009.4 hPa | 0 mm | - | 566 W/m² | - |
| 1777400415 | 21.67° C | 45% | 1009.4 hPa | 0 mm | - | 570 W/m² | - |
| 1777399514 | 21.67° C | 46% | 1009.7 hPa | 0 mm | - | 521 W/m² | - |
| 1777398614 | 21.11° C | 48% | 1009.6 hPa | 0 mm | - | 536 W/m² | - |
| 1777397714 | 20.56° C | 48% | 1009.6 hPa | 0 mm | - | 573 W/m² | - |
| 1777396814 | 20° C | 49% | 1009.9 hPa | 0 mm | - | 549 W/m² | - |
| 1777395915 | 18.89° C | 53% | 1009.8 hPa | 0 mm | - | 519 W/m² | - |
| 1777395014 | 18.33° C | 55% | 1010 hPa | 0 mm | - | 502 W/m² | - |
| 1777394115 | 17.78° C | 57% | 1010.1 hPa | 0 mm | - | 495 W/m² | - |
| 1777393214 | 17.78° C | 58% | 1010 hPa | 0 mm | - | 72 W/m² | - |
* Rain since midnight (hover to see other rain measurements)
** Current wind speed in m/s (hover to see current wind gust speed)